David L. Griggs — WDE5778 — position and weather

sailwx.info

Track history (hours):
 
Tides and Currents Weather Stations Pressure Air Temp Water Temp Dewpoint Dewpoint Depression Visibility Wind Speed Wind Dir Waves Ship Positions

David L. Griggs

Owner: Marquette Transportation Company, LLC, Paducah, KY. More information available from US FCC via Universal Licensing System and Coast Guard Vessel Documentation Center.

Last reported at 2016-Mar-30 11:31 UTC. Time now 2016-May-01 07:58 UTC.
Position N 32°47' W 091°09'.
Warning: this ship's position is 31 days out of date.

Length 42 m; draft 3 m.

Type: Towing. MMSI: 367371510.

Date/timePositionNaut miles runAvg speedWind from/ knotsBaromVisibWave heightAir tempDewpointWater temp
2016-Mar-30 11:31N 32°47' W 091°09'9 3.0
2016-Mar-30 08:25N 32°38' W 091°09'1 1.6
2016-Mar-30 07:33N 32°36' W 091°09'0 0.0
2016-Mar-30 06:33N 32°36' W 091°09'0 0.0
2016-Mar-30 05:33N 32°36' W 091°09'4 4.4
2016-Mar-30 04:33N 32°33' W 091°06'5 4.7
2016-Mar-30 03:33N 32°28' W 091°06'5 4.9
2016-Mar-30 02:33N 32°26' W 091°01'3 3.3
2016-Mar-30 01:33N 32°23' W 091°00'4 4.3
2016-Mar-30 00:33N 32°21' W 090°56'2 2.4
2016-Mar-29 23:33N 32°18' W 090°55'4 4.1
2016-Mar-29 22:33N 32°15' W 090°58'5 5.1
2016-Mar-29 21:33N 32°10' W 090°60'4 3.7
2016-Mar-29 20:33N 32°07' W 091°03'  
Track history (hours):
 
Tides and Currents Weather Stations Pressure Air Temp Water Temp Dewpoint Dewpoint Depression Visibility Wind Speed Wind Dir Waves Ship Positions

David L. Griggs

Owner: Marquette Transportation Company, LLC, Paducah, KY. More information available from US FCC via Universal Licensing System and Coast Guard Vessel Documentation Center.

Last reported at 2016-Mar-30 11:31 UTC. Time now 2016-May-01 07:58 UTC.
Position N 32°47' W 091°09'.
Warning: this ship's position is 31 days out of date.

Length 42 m; draft 3 m.

Type: Towing. MMSI: 367371510.

Date/timePositionNaut miles runAvg speedWind from/ knotsBaromVisibWave heightAir tempDewpointWater temp
2016-Mar-30 11:31N 32°47' W 091°09'9 3.0
2016-Mar-30 08:25N 32°38' W 091°09'1 1.6
2016-Mar-30 07:33N 32°36' W 091°09'0 0.0
2016-Mar-30 06:33N 32°36' W 091°09'0 0.0
2016-Mar-30 05:33N 32°36' W 091°09'4 4.4
2016-Mar-30 04:33N 32°33' W 091°06'5 4.7
2016-Mar-30 03:33N 32°28' W 091°06'5 4.9
2016-Mar-30 02:33N 32°26' W 091°01'3 3.3
2016-Mar-30 01:33N 32°23' W 091°00'4 4.3
2016-Mar-30 00:33N 32°21' W 090°56'2 2.4
2016-Mar-29 23:33N 32°18' W 090°55'4 4.1
2016-Mar-29 22:33N 32°15' W 090°58'5 5.1
2016-Mar-29 21:33N 32°10' W 090°60'4 3.7
2016-Mar-29 20:33N 32°07' W 091°03'  

Dump ship's entire track history